»·PEaware :: N701GT KSNA-KSMX

N701GT :: KSNA-KSMX

FLIGHT INFORMATION

Flight Status: Arrived
Operator: Privately registered:
United States
More flights under this callsign
Pilot: Anonymous 17564 (17564)
Aircraft: CESSNA 310
(C310)
More flights by this aircraft type
Origin: KSNA John Wayne-Orange Co
United States
Destination: KSMX Santa Maria Pub/Capt Hancock
United States
More flights between these airports :: More routes between these airports
Route: ANAHM9 VTU RZS KOAKS
File this flight plan on PilotEdge
Remarks:
Altitude:
(Current/Filed)
12,000ft
Speed:
(Current/Filed)
180kts
Departed: 26-Jun-18 02:52 PM
Arrived: 26-Jun-18 03:51 PM
Distance/Time
Traveled:
147nm/0:59
Distance/Time
To Go:
Arrived

Flight Plot

Page will automatically refresh every two minutes.


Map Options




Map Legend


Flown Route
Filed Route
Departure Airport
Arrival Airport
Navaid (VOR, NDB)
Fix

Horizontal Profiles

Position Reports

Time Latitude Longitude Heading Altitude Ground
Speed
26-Jun-18 14:38 33.672212 -117.866762 215 59ft 0kts
26-Jun-18 14:39 33.672212 -117.866762 215 59ft 0kts
26-Jun-18 14:40 33.672212 -117.866762 215 59ft 0kts
26-Jun-18 14:41 33.672212 -117.866762 215 59ft 0kts
26-Jun-18 14:42 33.672212 -117.866762 215 59ft 0kts
26-Jun-18 14:43 33.672212 -117.866762 215 59ft 0kts
26-Jun-18 14:44 33.672212 -117.866762 215 59ft 0kts
26-Jun-18 14:45 33.672212 -117.866762 215 59ft 0kts
26-Jun-18 14:46 33.672212 -117.866762 215 59ft 0kts
26-Jun-18 14:47 33.672212 -117.866762 215 59ft 0kts
26-Jun-18 14:48 33.672222 -117.867161 304 59ft 0kts
26-Jun-18 14:49 33.673616 -117.867053 316 59ft 6kts
26-Jun-18 14:50 33.677005 -117.865272 29 59ft 17kts
26-Jun-18 14:51 33.679932 -117.863635 287 59ft 0kts
26-Jun-18 14:52 33.676497 -117.866512 208 59ft 85kts
26-Jun-18 14:53 33.654642 -117.892878 234 1397ft 126kts
26-Jun-18 14:54 33.635556 -117.923739 234 2193ft 156kts
26-Jun-18 14:55 33.615721 -117.969584 289 3193ft 162kts
26-Jun-18 14:56 33.638282 -118.007797 303 4073ft 160kts
26-Jun-18 14:57 33.662384 -118.052445 302 5063ft 158kts
26-Jun-18 14:58 33.685646 -118.096599 302 6018ft 157kts
26-Jun-18 14:59 33.711471 -118.145790 302 6006ft 178kts
26-Jun-18 15:00 33.737676 -118.195808 302 6001ft 179kts
26-Jun-18 15:01 33.763986 -118.246001 302 6002ft 182kts
26-Jun-18 15:02 33.795399 -118.285679 318 6000ft 182kts
26-Jun-18 15:03 33.833631 -118.326098 318 6009ft 189kts
26-Jun-18 15:04 33.873024 -118.368031 318 6014ft 191kts
26-Jun-18 15:05 33.911812 -118.409482 318 6006ft 185kts
26-Jun-18 15:06 33.941402 -118.458082 289 6017ft 188kts
26-Jun-18 15:07 33.959962 -118.516289 291 6001ft 182kts
26-Jun-18 15:08 33.977921 -118.572596 290 6003ft 179kts
26-Jun-18 15:09 33.995797 -118.628770 291 6004ft 178kts
26-Jun-18 15:10 34.013558 -118.684669 291 6003ft 179kts
26-Jun-18 15:11 34.031346 -118.740778 291 6005ft 182kts
26-Jun-18 15:12 34.048545 -118.799789 287 6009ft 190kts
26-Jun-18 15:13 34.064409 -118.859708 288 5994ft 183kts
26-Jun-18 15:14 34.077641 -118.909343 288 6437ft 168kts
26-Jun-18 15:15 34.090181 -118.956332 288 7055ft 160kts
26-Jun-18 15:16 34.103512 -119.006360 288 7742ft 154kts
26-Jun-18 15:17 34.114957 -119.048963 293 8343ft 150kts
26-Jun-18 15:18 34.137357 -119.090104 304 9033ft 144kts
26-Jun-18 15:19 34.159494 -119.130189 303 9737ft 152kts
26-Jun-18 15:20 34.183596 -119.174014 303 10408ft 154kts
26-Jun-18 15:21 34.206903 -119.216380 303 11119ft 151kts
26-Jun-18 15:22 34.230084 -119.258549 302 11798ft 146kts
26-Jun-18 15:23 34.253372 -119.301023 302 12034ft 164kts
26-Jun-18 15:24 34.279266 -119.348307 302 12032ft 170kts
26-Jun-18 15:25 34.305475 -119.396194 302 12035ft 170kts
26-Jun-18 15:26 34.331696 -119.444169 302 12040ft 171kts
26-Jun-18 15:27 34.357911 -119.492196 302 12042ft 171kts
26-Jun-18 15:28 34.381756 -119.535965 302 12038ft 164kts
26-Jun-18 15:29 34.401077 -119.571152 302 11903ft 94kts
26-Jun-18 15:30 34.419264 -119.604717 303 10756ft 128kts
26-Jun-18 15:31 34.439967 -119.642790 304 9484ft 131kts
26-Jun-18 15:32 34.461893 -119.683160 304 8248ft 172kts
26-Jun-18 15:33 34.488257 -119.731956 304 8008ft 153kts
26-Jun-18 15:34 34.511349 -119.774657 303 8036ft 173kts
26-Jun-18 15:35 34.536092 -119.826170 301 8033ft 178kts
26-Jun-18 15:36 34.561051 -119.878228 301 8028ft 179kts
26-Jun-18 15:37 34.586047 -119.930285 301 7780ft 178kts
26-Jun-18 15:38 34.611366 -119.982884 301 6588ft 185kts
26-Jun-18 15:39 34.634407 -120.030971 301 5975ft 174kts
26-Jun-18 15:40 34.657822 -120.079903 301 5962ft 158kts
26-Jun-18 15:41 34.676955 -120.120014 301 5963ft 153kts
26-Jun-18 15:42 34.698467 -120.164923 301 5978ft 155kts
26-Jun-18 15:43 34.721096 -120.212372 300 4453ft 174kts
26-Jun-18 15:44 34.743473 -120.259308 300 2783ft 173kts
26-Jun-18 15:45 34.768493 -120.297977 315 2500ft 152kts
26-Jun-18 15:46 34.799004 -120.335072 315 2505ft 156kts
26-Jun-18 15:47 34.830255 -120.372831 317 2384ft 154kts
26-Jun-18 15:48 34.853654 -120.400190 318 1419ft 100kts
26-Jun-18 15:49 34.872585 -120.422144 316 932ft 93kts
26-Jun-18 15:50 34.890732 -120.443482 315 356ft 84kts
26-Jun-18 15:51 34.898801 -120.452294 79 264ft 0kts
26-Jun-18 15:52 34.897078 -120.447245 59 264ft 15kts
26-Jun-18 15:53 34.897229 -120.446404 195 264ft 0kts
26-Jun-18 15:54 34.897229 -120.446404 195 264ft 0kts
26-Jun-18 15:55 34.897229 -120.446404 195 264ft 0kts
26-Jun-18 15:56 34.897229 -120.446404 195 264ft 0kts
26-Jun-18 15:57 34.897229 -120.446404 195 264ft 0kts
26-Jun-18 15:58 34.897229 -120.446404 195 264ft 0kts
26-Jun-18 15:59 34.897229 -120.446404 195 264ft 0kts
26-Jun-18 16:00 34.897229 -120.446404 195 264ft 0kts
26-Jun-18 16:01 34.897229 -120.446404 195 264ft 0kts
26-Jun-18 16:02 34.897229 -120.446404 195 264ft 0kts
26-Jun-18 16:03 34.897229 -120.446404 195 264ft 0kts
26-Jun-18 16:04 34.897229 -120.446404 195 264ft 0kts
26-Jun-18 16:05 34.897229 -120.446404 195 264ft 0kts

Navigation Log

Ident Type
Flight plan parsing failed, navigation log unavailable